CheckWX is a tool to help pilots better visualize weather data.  It is not intended as a substitute for an official pre-flight weather briefing.

08:54:19 UTC

KRTN METAR
Raton Municipal / Crews Field Airport
Raton, New Mexico, USA
Current

1 hour ago

KRTN 230753Z AUTO 02007KT 10SM -RA OVC018 06/04 A3021 RMK AO2 SLP189 P0002 T00610039
Observed
Apr-23 @ 07:53 UTC
Wind
  • 020° at 7 KTS
Visibility
10 SM
Flight Rules
MVFR
Conditions
Light Rain
Cloud Levels
  • Overcast at 1,800' AGL
Temperature
C / 43°F
Dewpoint
C / 39°F
Humidity
87%
Altimeter
30.21" Hg
Pressure
1023.02 hPa
Current Rain
0.02"
Previous

2 hours ago

KRTN 230653Z AUTO 04005KT 10SM -RA BKN022 OVC028 07/04 A3022 RMK AO2 SLP187 P0001 T00670044 401720061
Observed
Apr-23 @ 06:53 UTC
Wind
  • 040° at 5 KTS
Visibility
10 SM
Flight Rules
MVFR
Conditions
Light Rain
Cloud Levels
  • Broken at 2,200' AGL
  • Overcast at 2,800' AGL
Temperature
C / 45°F
Dewpoint
C / 39°F
Humidity
81%
Altimeter
30.22" Hg
Pressure
1023.42 hPa
Current Rain
0.01"
Previous

3 hours ago

KRTN 230607Z AUTO 04006KT 10SM -RA BKN025 BKN032 OVC042 07/04 A3022 RMK AO2 P0000 T00670044
Observed
Apr-23 @ 06:07 UTC
Wind
  • 040° at 6 KTS
Visibility
10 SM
Flight Rules
MVFR
Conditions
Light Rain
Cloud Levels
  • Broken at 2,500' AGL
  • Broken at 3,200' AGL
  • Overcast at 4,200' AGL
Temperature
C / 45°F
Dewpoint
C / 39°F
Humidity
81%
Altimeter
30.22" Hg
Pressure
1023.42 hPa
Current Rain
0.01"